createdAt,value
2016-11-01T00:00:12.702Z,1011.05
2016-11-01T00:00:34.466Z,1011.26
2016-11-01T00:00:56.198Z,1011.17
2016-11-01T00:01:17.927Z,1011.17
2016-11-01T00:01:39.646Z,1011.10
2016-11-01T00:02:01.384Z,1010.99
2016-11-01T00:02:23.108Z,1011.08
2016-11-01T00:02:44.835Z,1010.87
2016-11-01T00:03:06.566Z,1010.87
2016-11-01T00:03:28.285Z,1011.00
2016-11-01T00:03:50.003Z,1011.19
2016-11-01T00:04:11.714Z,1011.06
2016-11-01T00:04:33.457Z,1011.20
2016-11-01T00:04:55.189Z,1011.10
2016-11-01T00:05:16.923Z,1010.93
2016-11-01T00:05:38.649Z,1010.84
2016-11-01T00:06:00.370Z,1011.15
2016-11-01T00:06:22.104Z,1011.17
2016-11-01T00:06:43.839Z,1011.13
2016-11-01T00:07:05.558Z,1011.02
2016-11-01T00:07:27.282Z,1010.72
2016-11-01T00:07:49.000Z,1011.05
2016-11-01T00:08:10.719Z,1011.13
2016-11-01T00:08:32.439Z,1011.04
2016-11-01T00:08:54.194Z,1010.89
2016-11-01T00:09:15.936Z,1010.83
2016-11-01T00:09:37.648Z,1011.26
2016-11-01T00:09:59.378Z,1011.29
2016-11-01T00:10:21.101Z,1011.20
2016-11-01T00:10:42.823Z,1011.29
2016-11-01T00:11:04.580Z,1011.12
2016-11-01T00:11:26.301Z,1011.05
2016-11-01T00:11:48.023Z,1011.11
2016-11-01T00:12:09.740Z,1011.14
2016-11-01T00:12:31.464Z,1011.03
2016-11-01T00:12:53.186Z,1010.88
2016-11-01T00:13:14.916Z,1010.77
2016-11-01T00:13:36.638Z,1011.00
2016-11-01T00:13:58.367Z,1010.99
2016-11-01T00:14:20.085Z,1010.87
2016-11-01T00:14:41.807Z,1010.81
2016-11-01T00:15:03.559Z,1010.98
2016-11-01T00:15:26.289Z,1010.67
2016-11-01T00:15:48.057Z,1010.77
2016-11-01T00:16:09.783Z,1010.84
2016-11-01T00:16:31.527Z,1011.06
2016-11-01T00:17:19.738Z,1010.85
2016-11-01T00:17:41.456Z,1010.85
2016-11-01T00:18:03.191Z,1011.06
2016-11-01T00:18:24.906Z,1011.01
2016-11-01T00:18:46.651Z,1010.95
2016-11-01T00:19:08.380Z,1011.19
2016-11-01T00:19:56.618Z,1011.03
2016-11-01T00:20:18.366Z,1011.11
2016-11-01T00:20:40.095Z,1011.11
2016-11-01T00:21:01.823Z,1011.12
2016-11-01T00:21:23.542Z,1011.03
2016-11-01T00:21:45.271Z,1010.95
2016-11-01T00:22:06.992Z,1010.89
2016-11-01T00:22:28.717Z,1010.92
2016-11-01T00:22:50.439Z,1010.87
2016-11-01T00:23:12.157Z,1011.07
2016-11-01T00:23:33.891Z,1011.12
2016-11-01T00:23:56.611Z,1010.94
2016-11-01T00:24:23.112Z,1010.81
2016-11-01T00:24:44.844Z,1010.96
2016-11-01T00:25:06.569Z,1010.91
2016-11-01T00:25:28.291Z,1010.98
2016-11-01T00:25:52.903Z,1010.97
2016-11-01T00:26:14.628Z,1010.99
2016-11-01T00:26:36.359Z,1010.98
2016-11-01T00:26:58.080Z,1011.00
2016-11-01T00:27:19.800Z,1010.93
2016-11-01T00:27:41.531Z,1010.85
2016-11-01T00:28:03.258Z,1010.72
2016-11-01T00:28:24.980Z,1011.06
2016-11-01T00:28:46.697Z,1011.05
2016-11-01T00:29:08.412Z,1011.08
2016-11-01T00:29:30.143Z,1010.99
2016-11-01T00:29:51.979Z,1010.99
2016-11-01T00:30:13.699Z,1010.96
2016-11-01T00:30:35.415Z,1011.16
2016-11-01T00:30:57.225Z,1011.09
2016-11-01T00:31:18.941Z,1011.02
2016-11-01T00:31:40.662Z,1010.94
2016-11-01T00:32:02.389Z,1011.09
2016-11-01T00:32:24.177Z,1011.00
2016-11-01T00:32:48.676Z,1011.01
2016-11-01T00:33:10.400Z,1010.85
2016-11-01T00:33:32.123Z,1010.83
2016-11-01T00:33:53.855Z,1010.66
2016-11-01T00:34:15.611Z,1010.72
2016-11-01T00:35:03.855Z,1011.05
2016-11-01T00:35:25.586Z,1010.85
2016-11-01T00:35:52.132Z,1011.05
2016-11-01T00:36:16.663Z,1010.97
2016-11-01T00:36:38.399Z,1010.86
2016-11-01T00:37:00.121Z,1010.96
2016-11-01T00:37:21.866Z,1010.98
2016-11-01T00:37:43.585Z,1010.98
2016-11-01T00:38:05.309Z,1011.06
2016-11-01T00:38:27.037Z,1010.93
2016-11-01T00:38:48.765Z,1011.04
2016-11-01T00:39:10.484Z,1010.97
2016-11-01T00:39:32.213Z,1010.93
2016-11-01T00:39:53.944Z,1010.96
2016-11-01T00:40:15.665Z,1010.90
2016-11-01T00:40:37.387Z,1010.96
2016-11-01T00:40:59.105Z,1010.80
2016-11-01T00:41:20.833Z,1010.65
2016-11-01T00:41:42.579Z,1010.69
2016-11-01T00:42:04.299Z,1010.86
2016-11-01T00:42:26.018Z,1010.85
2016-11-01T00:42:47.740Z,1010.79
2016-11-01T00:43:09.472Z,1010.93
2016-11-01T00:43:31.193Z,1010.74
2016-11-01T00:43:52.933Z,1010.58
2016-11-01T00:44:14.657Z,1010.81
2016-11-01T00:44:36.384Z,1010.78
2016-11-01T00:44:58.107Z,1010.59
2016-11-01T00:45:19.840Z,1010.70
2016-11-01T00:45:41.576Z,1010.64
2016-11-01T00:46:03.299Z,1010.70
2016-11-01T00:46:25.018Z,1010.70
2016-11-01T00:46:46.743Z,1010.79
2016-11-01T00:47:08.472Z,1010.93
2016-11-01T00:47:30.198Z,1010.75
2016-11-01T00:47:51.925Z,1010.66
2016-11-01T00:48:13.653Z,1010.61
2016-11-01T00:48:35.376Z,1010.71
2016-11-01T00:48:57.104Z,1010.52
2016-11-01T00:49:21.433Z,1010.61
2016-11-01T00:49:43.144Z,1010.76
2016-11-01T00:50:07.614Z,1010.77
2016-11-01T00:50:29.337Z,1010.69
2016-11-01T00:50:51.060Z,1010.76
2016-11-01T00:51:12.789Z,1010.59
2016-11-01T00:51:34.505Z,1010.56
2016-11-01T00:51:56.233Z,1010.64
2016-11-01T00:52:17.968Z,1010.74
2016-11-01T00:52:39.696Z,1010.57
2016-11-01T00:53:01.413Z,1010.52
2016-11-01T00:53:23.125Z,1010.71
2016-11-01T00:53:44.858Z,1010.72
2016-11-01T00:54:06.592Z,1010.53
2016-11-01T00:54:28.299Z,1010.59
2016-11-01T00:54:50.029Z,1010.45
2016-11-01T00:55:11.776Z,1010.54
2016-11-01T00:55:33.498Z,1010.71
2016-11-01T00:55:55.213Z,1010.75
2016-11-01T00:56:16.943Z,1010.69
2016-11-01T00:56:38.684Z,1010.71
2016-11-01T00:57:00.403Z,1010.62
2016-11-01T00:57:22.118Z,1010.68
2016-11-01T00:57:43.842Z,1010.65
2016-11-01T00:58:05.581Z,1010.40
2016-11-01T00:58:27.299Z,1010.67
2016-11-01T00:58:49.034Z,1010.54
2016-11-01T00:59:10.759Z,1010.48
2016-11-01T00:59:32.476Z,1010.62
2016-11-01T00:59:54.193Z,1010.75
2016-11-01T01:00:15.917Z,1010.88
2016-11-01T01:00:37.636Z,1010.59
2016-11-01T01:00:59.358Z,1010.52
2016-11-01T01:01:21.076Z,1010.69
2016-11-01T01:01:42.805Z,1010.66
2016-11-01T01:02:04.537Z,1010.84
2016-11-01T01:02:26.253Z,1010.95
2016-11-01T01:02:47.973Z,1010.86
2016-11-01T01:03:09.700Z,1010.64
2016-11-01T01:03:31.431Z,1010.52
2016-11-01T01:03:53.154Z,1010.66
2016-11-01T01:04:14.879Z,1010.79
2016-11-01T01:04:41.370Z,1010.58
2016-11-01T01:05:03.225Z,1010.56
2016-11-01T01:05:27.916Z,1010.56
2016-11-01T01:05:49.652Z,1010.63
2016-11-01T01:06:13.592Z,1010.35
2016-11-01T01:06:35.295Z,1010.41
2016-11-01T01:06:57.015Z,1010.45
2016-11-01T01:07:18.742Z,1010.59
2016-11-01T01:07:43.428Z,1010.62
2016-11-01T01:08:05.188Z,1010.51
2016-11-01T01:08:26.907Z,1010.64
2016-11-01T01:08:48.623Z,1010.60
2016-11-01T01:09:10.343Z,1010.70
2016-11-01T01:09:32.066Z,1010.62
2016-11-01T01:09:53.832Z,1010.54
2016-11-01T01:10:15.549Z,1010.56
2016-11-01T01:10:37.268Z,1010.43
2016-11-01T01:10:58.984Z,1010.60
2016-11-01T01:11:20.703Z,1010.50
2016-11-01T01:11:42.420Z,1010.38
2016-11-01T01:12:04.142Z,1010.45
2016-11-01T01:12:25.891Z,1010.48
2016-11-01T01:12:47.618Z,1010.46
2016-11-01T01:13:09.347Z,1010.39
2016-11-01T01:13:31.066Z,1010.42
2016-11-01T01:13:52.799Z,1010.53
2016-11-01T01:14:14.536Z,1010.52
2016-11-01T01:14:36.262Z,1010.44
2016-11-01T01:14:57.977Z,1010.65
2016-11-01T01:15:19.693Z,1010.53
2016-11-01T01:15:41.436Z,1010.51
2016-11-01T01:16:03.154Z,1010.44
2016-11-01T01:16:24.877Z,1010.42
2016-11-01T01:16:46.615Z,1010.48
2016-11-01T01:17:11.173Z,1010.52
2016-11-01T01:17:32.906Z,1010.48
2016-11-01T01:17:54.632Z,1010.23
2016-11-01T01:18:16.367Z,1010.37
2016-11-01T01:18:38.100Z,1010.34
2016-11-01T01:18:59.825Z,1010.39
2016-11-01T01:19:21.547Z,1010.34
2016-11-01T01:19:43.267Z,1010.25
2016-11-01T01:20:04.997Z,1010.31
2016-11-01T01:20:26.713Z,1010.28
2016-11-01T01:20:48.432Z,1010.37
2016-11-01T01:21:10.161Z,1010.45
2016-11-01T01:21:31.887Z,1010.45
2016-11-01T01:21:53.620Z,1010.46
2016-11-01T01:22:15.332Z,1010.33
2016-11-01T01:22:37.054Z,1010.22
2016-11-01T01:22:58.789Z,1010.17
2016-11-01T01:23:20.532Z,1010.25
2016-11-01T01:23:42.252Z,1010.23
2016-11-01T01:24:03.969Z,1010.50
2016-11-01T01:24:25.685Z,1010.51
2016-11-01T01:24:47.402Z,1010.43
2016-11-01T01:25:09.119Z,1010.48
2016-11-01T01:25:30.849Z,1010.41
2016-11-01T01:25:52.568Z,1010.36
2016-11-01T01:26:14.311Z,1010.46
2016-11-01T01:26:36.044Z,1010.40
2016-11-01T01:26:57.763Z,1010.52
2016-11-01T01:27:19.480Z,1010.55
2016-11-01T01:27:41.213Z,1010.41
2016-11-01T01:28:02.933Z,1010.41
2016-11-01T01:28:24.666Z,1010.40
2016-11-01T01:28:46.476Z,1010.22
2016-11-01T01:29:08.195Z,1010.34
2016-11-01T01:29:29.911Z,1010.45
2016-11-01T01:29:51.681Z,1010.45
2016-11-01T01:30:13.407Z,1010.46
2016-11-01T01:30:35.126Z,1010.31
2016-11-01T01:30:56.989Z,1010.22
2016-11-01T01:31:18.653Z,1010.26
2016-11-01T01:31:40.374Z,1010.37
2016-11-01T01:32:02.140Z,1010.40
2016-11-01T01:32:23.858Z,1010.21
2016-11-01T01:32:45.580Z,1010.32
2016-11-01T01:33:07.313Z,1010.36
2016-11-01T01:33:29.037Z,1010.34
2016-11-01T01:33:50.752Z,1010.38
2016-11-01T01:34:12.488Z,1010.35
2016-11-01T01:34:34.206Z,1010.37
2016-11-01T01:34:55.927Z,1010.33
2016-11-01T01:35:17.661Z,1010.22
2016-11-01T01:35:39.382Z,1009.99
2016-11-01T01:36:01.107Z,1010.15
2016-11-01T01:36:22.886Z,1010.14
2016-11-01T01:36:44.616Z,1010.29
2016-11-01T01:37:06.325Z,1010.17
2016-11-01T01:37:28.046Z,1010.41
2016-11-01T01:37:49.790Z,1010.16
2016-11-01T01:38:11.525Z,1010.22
2016-11-01T01:38:33.269Z,1010.21
2016-11-01T01:38:54.986Z,1010.40
2016-11-01T01:39:16.719Z,1010.30
2016-11-01T01:39:38.438Z,1010.25
2016-11-01T01:40:00.168Z,1010.36
2016-11-01T01:40:21.903Z,1010.33
2016-11-01T01:40:43.630Z,1010.29
2016-11-01T01:41:05.356Z,1010.38
2016-11-01T01:41:27.083Z,1010.34
2016-11-01T01:41:48.806Z,1010.28
2016-11-01T01:42:10.539Z,1010.33
2016-11-01T01:42:32.257Z,1010.19
2016-11-01T01:42:53.987Z,1010.11
2016-11-01T01:43:15.701Z,1010.32
2016-11-01T01:43:37.430Z,1010.39
2016-11-01T01:43:59.145Z,1010.12
2016-11-01T01:44:47.362Z,1010.16
2016-11-01T01:45:09.090Z,1010.38
2016-11-01T01:45:30.817Z,1010.24
2016-11-01T01:45:52.545Z,1010.34
2016-11-01T01:46:14.259Z,1010.31
2016-11-01T01:46:35.980Z,1010.34
2016-11-01T01:46:57.696Z,1010.24
2016-11-01T01:47:19.413Z,1010.41
2016-11-01T01:47:41.142Z,1010.15
2016-11-01T01:48:02.864Z,1010.21
2016-11-01T01:48:24.589Z,1010.24
2016-11-01T01:48:46.307Z,1010.28
2016-11-01T01:49:08.024Z,1010.40
2016-11-01T01:49:29.749Z,1010.46
2016-11-01T01:49:51.476Z,1010.38
2016-11-01T01:50:13.199Z,1010.49
2016-11-01T01:50:34.920Z,1010.21
2016-11-01T01:50:56.652Z,1010.19
2016-11-01T01:51:18.377Z,1010.49
2016-11-01T01:51:40.112Z,1010.43
2016-11-01T01:52:01.836Z,1010.41
2016-11-01T01:52:23.555Z,1010.40
2016-11-01T01:52:45.276Z,1010.50
2016-11-01T01:53:07.013Z,1010.36
2016-11-01T01:53:28.734Z,1010.15
2016-11-01T01:53:50.454Z,1010.14
2016-11-01T01:54:12.176Z,1010.14
2016-11-01T01:54:33.903Z,1010.16
2016-11-01T01:54:55.622Z,1010.34
2016-11-01T01:55:17.369Z,1010.35
2016-11-01T01:55:39.096Z,1010.26
2016-11-01T01:56:00.810Z,1010.18
2016-11-01T01:56:22.571Z,1010.26
2016-11-01T01:56:44.288Z,1010.22
2016-11-01T01:57:06.028Z,1010.54
2016-11-01T01:57:27.745Z,1010.50
2016-11-01T01:57:49.466Z,1010.51
2016-11-01T01:58:11.195Z,1010.32
2016-11-01T01:58:32.925Z,1010.19
2016-11-01T01:58:59.411Z,1010.26
2016-11-01T01:59:21.132Z,1010.40
2016-11-01T01:59:42.854Z,1010.34
2016-11-01T02:00:04.577Z,1010.24
2016-11-01T02:00:26.326Z,1010.24
2016-11-01T02:00:48.047Z,1010.20
2016-11-01T02:01:09.765Z,1010.16
2016-11-01T02:01:31.482Z,1010.11
2016-11-01T02:01:53.205Z,1010.09
2016-11-01T02:02:14.932Z,1009.86
2016-11-01T02:02:36.653Z,1010.09
2016-11-01T02:02:58.388Z,1010.20
2016-11-01T02:03:22.696Z,1010.10
2016-11-01T02:03:44.431Z,1010.06
2016-11-01T02:04:06.148Z,1010.21
2016-11-01T02:04:27.873Z,1010.21
2016-11-01T02:04:49.591Z,1010.14
2016-11-01T02:05:11.309Z,1010.18
2016-11-01T02:05:33.048Z,1010.42
2016-11-01T02:05:54.771Z,1010.25
2016-11-01T02:06:16.494Z,1010.23
2016-11-01T02:06:38.217Z,1010.14
2016-11-01T02:06:59.933Z,1010.02
2016-11-01T02:07:24.227Z,1010.05
2016-11-01T02:07:45.943Z,1010.09
2016-11-01T02:08:07.674Z,1010.10
2016-11-01T02:08:29.384Z,1010.13
2016-11-01T02:08:51.106Z,1010.08
2016-11-01T02:09:12.844Z,1010.01
2016-11-01T02:09:34.565Z,1010.03
2016-11-01T02:09:56.287Z,1009.98
2016-11-01T02:10:18.010Z,1009.82
2016-11-01T02:10:39.729Z,1010.02
2016-11-01T02:11:01.461Z,1010.07
2016-11-01T02:11:23.196Z,1009.95
2016-11-01T02:11:44.917Z,1010.16
2016-11-01T02:12:06.642Z,1010.32
2016-11-01T02:12:28.370Z,1010.02
2016-11-01T02:12:50.092Z,1009.95
2016-11-01T02:13:11.811Z,1010.15
2016-11-01T02:13:33.542Z,1010.11
2016-11-01T02:13:55.263Z,1010.04
2016-11-01T02:14:17.005Z,1009.99
2016-11-01T02:14:38.728Z,1009.89
2016-11-01T02:15:00.463Z,1010.07
2016-11-01T02:15:22.180Z,1010.14
2016-11-01T02:15:43.902Z,1010.05
2016-11-01T02:16:05.636Z,1009.99
2016-11-01T02:16:27.359Z,1009.89
2016-11-01T02:16:49.086Z,1009.77
2016-11-01T02:17:10.819Z,1009.90
2016-11-01T02:17:32.539Z,1009.96
2016-11-01T02:17:54.264Z,1010.15
2016-11-01T02:18:15.999Z,1010.20
2016-11-01T02:18:37.730Z,1010.16
2016-11-01T02:18:59.451Z,1010.09
2016-11-01T02:19:21.175Z,1009.95
2016-11-01T02:19:42.895Z,1009.98
2016-11-01T02:20:04.621Z,1009.98
2016-11-01T02:20:26.335Z,1009.84
2016-11-01T02:20:48.067Z,1009.97
2016-11-01T02:21:09.784Z,1010.17
2016-11-01T02:21:31.512Z,1010.14
2016-11-01T02:21:53.234Z,1010.07
2016-11-01T02:22:14.951Z,1009.95
2016-11-01T02:22:36.678Z,1009.99
2016-11-01T02:22:58.395Z,1009.91
2016-11-01T02:23:20.161Z,1009.87
2016-11-01T02:23:41.884Z,1009.82
2016-11-01T02:24:03.607Z,1009.87
2016-11-01T02:24:25.340Z,1009.77
2016-11-01T02:24:47.068Z,1009.87
2016-11-01T02:25:08.787Z,1009.93
2016-11-01T02:25:30.504Z,1009.81
2016-11-01T02:25:52.220Z,1009.77
2016-11-01T02:26:13.942Z,1009.91
2016-11-01T02:26:35.673Z,1010.01
2016-11-01T02:26:57.392Z,1010.03
2016-11-01T02:27:19.117Z,1010.00
2016-11-01T02:27:40.845Z,1009.90
2016-11-01T02:28:02.573Z,1009.78
2016-11-01T02:28:24.298Z,1009.90
2016-11-01T02:28:46.028Z,1009.77
2016-11-01T02:29:07.757Z,1009.65
2016-11-01T02:29:29.496Z,1009.76
2016-11-01T02:29:51.216Z,1009.87
2016-11-01T02:30:12.938Z,1009.89
2016-11-01T02:30:34.654Z,1009.77
2016-11-01T02:30:56.380Z,1009.81
2016-11-01T02:31:18.102Z,1009.74
2016-11-01T02:31:39.832Z,1009.79
2016-11-01T02:32:01.549Z,1009.77
2016-11-01T02:32:23.276Z,1009.74
2016-11-01T02:32:44.995Z,1009.87
2016-11-01T02:33:06.713Z,1009.62
2016-11-01T02:33:28.437Z,1009.81
2016-11-01T02:33:50.169Z,1009.73
2016-11-01T02:34:11.892Z,1009.64
2016-11-01T02:34:33.611Z,1009.86
2016-11-01T02:34:55.331Z,1009.95
2016-11-01T02:35:17.050Z,1009.82
2016-11-01T02:35:38.773Z,1009.60
2016-11-01T02:36:00.488Z,1009.78
2016-11-01T02:36:22.202Z,1009.83
2016-11-01T02:36:43.919Z,1009.76
2016-11-01T02:37:05.638Z,1009.80
2016-11-01T02:37:29.899Z,1009.76
2016-11-01T02:37:51.637Z,1009.87
2016-11-01T02:38:13.354Z,1009.76
2016-11-01T02:38:35.073Z,1009.76
2016-11-01T02:38:56.796Z,1009.88
2016-11-01T02:39:18.525Z,1009.62
2016-11-01T02:39:40.242Z,1009.65
2016-11-01T02:40:01.964Z,1009.70
2016-11-01T02:40:23.695Z,1009.72
2016-11-01T02:40:45.425Z,1009.74
2016-11-01T02:41:07.156Z,1009.71
2016-11-01T02:41:28.878Z,1009.73
2016-11-01T02:41:50.619Z,1009.78
2016-11-01T02:42:12.361Z,1009.71
2016-11-01T02:42:34.067Z,1009.88
2016-11-01T02:42:55.805Z,1009.72
2016-11-01T02:43:17.534Z,1009.75
2016-11-01T02:43:39.265Z,1009.63
2016-11-01T02:44:00.988Z,1009.43
2016-11-01T02:44:22.732Z,1009.48
2016-11-01T02:44:44.442Z,1009.70
2016-11-01T02:45:06.181Z,1009.68
2016-11-01T02:45:30.528Z,1009.68
2016-11-01T02:45:54.859Z,1009.70
2016-11-01T02:46:16.591Z,1009.55
2016-11-01T02:46:38.309Z,1009.84
2016-11-01T02:47:00.034Z,1009.60
2016-11-01T02:47:21.776Z,1009.49
2016-11-01T02:47:43.502Z,1009.72
2016-11-01T02:48:05.228Z,1009.68
2016-11-01T02:48:36.973Z,1009.75
2016-11-01T02:49:00.899Z,1009.76
2016-11-01T02:49:24.946Z,1009.55
2016-11-01T02:51:02.370Z,1009.68
2016-11-01T02:51:24.082Z,1009.58
2016-11-01T02:51:45.819Z,1009.47
2016-11-01T02:52:07.543Z,1009.78
2016-11-01T02:52:29.252Z,1009.84
2016-11-01T02:52:50.978Z,1009.71
2016-11-01T02:53:12.711Z,1009.73
2016-11-01T02:53:34.435Z,1009.56
2016-11-01T02:53:56.154Z,1009.57
2016-11-01T02:54:17.876Z,1009.51
2016-11-01T02:54:39.594Z,1009.41
2016-11-01T02:55:01.317Z,1009.27
2016-11-01T02:55:23.037Z,1009.44
2016-11-01T02:55:44.756Z,1009.61
2016-11-01T02:56:06.490Z,1009.48
2016-11-01T02:56:28.223Z,1009.45
2016-11-01T02:56:49.929Z,1009.53
2016-11-01T02:57:11.665Z,1009.44
2016-11-01T02:57:33.379Z,1009.52
2016-11-01T02:57:55.101Z,1009.52
2016-11-01T02:58:16.829Z,1009.64
2016-11-01T02:58:38.552Z,1009.61
2016-11-01T02:59:00.284Z,1009.55
2016-11-01T02:59:22.026Z,1009.56
2016-11-01T02:59:43.757Z,1009.53
2016-11-01T03:00:05.463Z,1009.53
2016-11-01T03:00:27.194Z,1009.57
2016-11-01T03:00:48.921Z,1009.37
2016-11-01T03:01:10.652Z,1009.45
2016-11-01T03:01:32.380Z,1009.51
2016-11-01T03:01:54.088Z,1009.47
2016-11-01T03:02:15.816Z,1009.39
2016-11-01T03:02:37.525Z,1009.11
2016-11-01T03:02:59.246Z,1009.57
2016-11-01T03:03:20.967Z,1009.54
2016-11-01T03:03:42.687Z,1009.32
2016-11-01T03:04:04.414Z,1009.34
2016-11-01T03:04:26.137Z,1009.44
2016-11-01T03:04:47.866Z,1009.75
2016-11-01T03:05:09.583Z,1009.62
2016-11-01T03:05:31.308Z,1009.44
2016-11-01T03:05:53.029Z,1009.59
2016-11-01T03:06:14.751Z,1009.52
2016-11-01T03:06:36.473Z,1009.48
2016-11-01T03:06:58.214Z,1009.39
2016-11-01T03:07:19.929Z,1009.40
2016-11-01T03:07:41.649Z,1009.45
2016-11-01T03:08:03.367Z,1009.48
2016-11-01T03:08:25.102Z,1009.47
2016-11-01T03:08:46.835Z,1009.44
2016-11-01T03:09:08.557Z,1009.54
2016-11-01T03:09:30.286Z,1009.57
2016-11-01T03:09:52.009Z,1009.46
2016-11-01T03:10:13.737Z,1009.38
2016-11-01T03:10:35.452Z,1009.57
2016-11-01T03:10:57.181Z,1009.52
2016-11-01T03:11:18.901Z,1009.36
2016-11-01T03:11:40.644Z,1009.42
2016-11-01T03:12:02.379Z,1009.41
2016-11-01T03:12:24.100Z,1009.45
2016-11-01T03:12:45.834Z,1009.65
2016-11-01T03:13:07.553Z,1009.57
2016-11-01T03:13:29.271Z,1009.52
2016-11-01T03:13:50.992Z,1009.52
2016-11-01T03:14:12.711Z,1009.53
2016-11-01T03:14:34.432Z,1009.55
2016-11-01T03:14:56.162Z,1009.42
2016-11-01T03:15:17.997Z,1009.47
2016-11-01T03:15:39.726Z,1009.40
2016-11-01T03:16:01.462Z,1009.27
2016-11-01T03:16:23.178Z,1009.33
2016-11-01T03:16:44.896Z,1009.24
2016-11-01T03:17:06.621Z,1009.13
2016-11-01T03:17:28.342Z,1009.31
2016-11-01T03:17:50.061Z,1009.28
2016-11-01T03:18:11.789Z,1009.06
2016-11-01T03:18:59.992Z,1009.24
2016-11-01T03:19:21.724Z,1009.38
2016-11-01T03:19:43.447Z,1009.52
2016-11-01T03:20:05.174Z,1009.50
2016-11-01T03:20:26.896Z,1009.43
2016-11-01T03:20:48.614Z,1009.28
2016-11-01T03:21:10.472Z,1009.19
2016-11-01T03:21:32.195Z,1009.30
2016-11-01T03:21:53.922Z,1009.27
2016-11-01T03:22:15.644Z,1009.35
2016-11-01T03:22:37.360Z,1009.30
2016-11-01T03:22:59.084Z,1009.32
2016-11-01T03:23:20.805Z,1009.28
2016-11-01T03:23:42.538Z,1009.33
2016-11-01T03:24:04.273Z,1009.34
2016-11-01T03:24:25.990Z,1009.21
2016-11-01T03:24:47.706Z,1009.10
2016-11-01T03:25:09.439Z,1008.94
2016-11-01T03:25:31.218Z,1009.03
2016-11-01T03:25:52.942Z,1008.98
2016-11-01T03:26:14.676Z,1009.08
2016-11-01T03:26:36.405Z,1009.25
2016-11-01T03:26:58.132Z,1009.12
2016-11-01T03:27:19.861Z,1009.11
2016-11-01T03:27:41.585Z,1009.10
2016-11-01T03:28:03.307Z,1009.19
2016-11-01T03:28:25.028Z,1009.39
2016-11-01T03:28:46.752Z,1009.33
2016-11-01T03:29:08.469Z,1009.36
2016-11-01T03:29:30.196Z,1009.28
2016-11-01T03:29:51.918Z,1009.35
2016-11-01T03:30:13.637Z,1009.23
2016-11-01T03:30:35.361Z,1009.24
2016-11-01T03:30:57.092Z,1009.16
2016-11-01T03:31:18.807Z,1009.14
2016-11-01T03:31:40.521Z,1009.10
2016-11-01T03:32:02.265Z,1009.07
2016-11-01T03:32:23.990Z,1009.11
2016-11-01T03:32:45.709Z,1009.05
2016-11-01T03:33:07.431Z,1009.06
2016-11-01T03:33:29.147Z,1009.09
2016-11-01T03:33:50.865Z,1009.08
2016-11-01T03:34:12.594Z,1009.07
2016-11-01T03:34:34.320Z,1009.19
2016-11-01T03:34:56.051Z,1009.10
2016-11-01T03:35:17.769Z,1008.93
2016-11-01T03:35:39.494Z,1008.95
2016-11-01T03:36:01.214Z,1009.02
2016-11-01T03:36:22.932Z,1009.20
2016-11-01T03:36:44.664Z,1009.10
2016-11-01T03:37:06.383Z,1009.16
2016-11-01T03:37:28.110Z,1009.20
2016-11-01T03:37:49.844Z,1009.18
2016-11-01T03:38:11.567Z,1009.25
2016-11-01T03:38:33.296Z,1009.04
2016-11-01T03:38:55.021Z,1009.16
2016-11-01T03:39:16.742Z,1009.14
2016-11-01T03:39:38.497Z,1009.22
2016-11-01T03:40:00.217Z,1009.05
2016-11-01T03:40:21.942Z,1009.12
2016-11-01T03:40:43.680Z,1009.17
2016-11-01T03:41:05.404Z,1009.27
2016-11-01T03:41:27.145Z,1008.97
2016-11-01T03:41:48.859Z,1009.04
2016-11-01T03:42:10.581Z,1009.00
2016-11-01T03:42:32.315Z,1009.05
2016-11-01T03:42:54.035Z,1009.13
2016-11-01T03:43:15.747Z,1009.17
2016-11-01T03:43:37.485Z,1009.29
2016-11-01T03:43:59.215Z,1009.08
2016-11-01T03:44:20.935Z,1008.94
2016-11-01T03:44:42.658Z,1009.13
2016-11-01T03:45:05.385Z,1009.07
2016-11-01T03:45:27.118Z,1009.11
2016-11-01T03:45:48.959Z,1009.16
2016-11-01T03:46:10.682Z,1009.22
2016-11-01T03:46:32.409Z,1009.17
2016-11-01T03:46:54.127Z,1008.96
2016-11-01T03:47:15.873Z,1008.98
2016-11-01T03:47:37.610Z,1008.91
2016-11-01T03:47:59.330Z,1009.04
2016-11-01T03:48:21.056Z,1009.05
2016-11-01T03:48:42.770Z,1009.14
2016-11-01T03:49:04.489Z,1009.22
2016-11-01T03:49:26.207Z,1009.02
2016-11-01T03:49:47.929Z,1009.11
2016-11-01T03:50:09.710Z,1008.91
2016-11-01T03:50:31.444Z,1008.86
2016-11-01T03:50:53.181Z,1009.14
2016-11-01T03:51:14.893Z,1009.14
2016-11-01T03:51:36.617Z,1009.02
2016-11-01T03:51:58.337Z,1008.99
2016-11-01T03:52:20.054Z,1009.18
2016-11-01T03:52:41.777Z,1009.14
2016-11-01T03:53:03.495Z,1009.08
2016-11-01T03:53:25.227Z,1008.96
2016-11-01T03:53:46.955Z,1008.98
2016-11-01T03:54:08.673Z,1009.04
2016-11-01T03:54:30.395Z,1009.08
2016-11-01T03:54:52.110Z,1008.99
2016-11-01T03:55:13.832Z,1008.93
2016-11-01T03:55:35.561Z,1008.97
2016-11-01T03:55:57.288Z,1009.04
2016-11-01T03:56:19.018Z,1008.92
2016-11-01T03:56:40.748Z,1008.80
2016-11-01T03:57:02.461Z,1009.09
2016-11-01T03:57:24.179Z,1009.14
2016-11-01T03:57:45.902Z,1009.05
2016-11-01T03:58:07.623Z,1009.05
2016-11-01T03:58:29.358Z,1008.91
2016-11-01T03:58:51.072Z,1008.71
2016-11-01T03:59:12.819Z,1008.96
2016-11-01T03:59:34.541Z,1008.91
2016-11-01T03:59:56.262Z,1009.06
2016-11-01T04:00:17.981Z,1009.12
2016-11-01T04:00:39.710Z,1009.09
2016-11-01T04:01:01.430Z,1008.94
2016-11-01T04:01:23.182Z,1008.84
2016-11-01T04:01:44.905Z,1008.98
2016-11-01T04:02:06.625Z,1008.95
2016-11-01T04:02:28.346Z,1008.85
2016-11-01T04:02:50.077Z,1008.83
2016-11-01T04:03:11.812Z,1008.84
2016-11-01T04:03:33.527Z,1008.95
2016-11-01T04:03:55.250Z,1008.75
2016-11-01T04:04:16.968Z,1008.97
2016-11-01T04:04:38.692Z,1009.01
2016-11-01T04:05:00.417Z,1008.79
2016-11-01T04:05:22.142Z,1008.93
2016-11-01T04:05:43.866Z,1008.77
2016-11-01T04:06:05.584Z,1008.77
2016-11-01T04:06:27.306Z,1009.09
2016-11-01T04:06:49.031Z,1009.04
2016-11-01T04:07:10.769Z,1008.87
2016-11-01T04:07:32.489Z,1009.03
2016-11-01T04:07:54.218Z,1008.78
2016-11-01T04:08:15.945Z,1008.77
2016-11-01T04:08:37.681Z,1008.73
2016-11-01T04:08:59.395Z,1008.96
2016-11-01T04:09:21.119Z,1008.89
2016-11-01T04:09:42.846Z,1008.90
2016-11-01T04:10:04.565Z,1008.57
2016-11-01T04:10:26.290Z,1008.65
2016-11-01T04:10:48.013Z,1008.94
2016-11-01T04:11:09.732Z,1009.00
2016-11-01T04:11:31.456Z,1009.03
2016-11-01T04:11:53.202Z,1008.98
2016-11-01T04:12:14.924Z,1008.97
2016-11-01T04:12:36.640Z,1009.16
2016-11-01T04:12:58.369Z,1008.69
2016-11-01T04:13:20.093Z,1008.89
2016-11-01T04:13:41.813Z,1009.06
2016-11-01T04:14:03.538Z,1009.03
2016-11-01T04:14:25.255Z,1008.78
2016-11-01T04:14:46.988Z,1008.63
2016-11-01T04:15:08.719Z,1008.72
2016-11-01T04:15:30.438Z,1008.94
2016-11-01T04:15:52.160Z,1008.81
2016-11-01T04:16:13.884Z,1008.85
2016-11-01T04:16:35.597Z,1008.77
2016-11-01T04:16:57.323Z,1009.04
2016-11-01T04:17:21.669Z,1008.94
2016-11-01T04:17:43.390Z,1008.91
2016-11-01T04:18:05.121Z,1008.84
2016-11-01T04:18:26.842Z,1008.91
2016-11-01T04:18:48.565Z,1008.77
2016-11-01T04:19:10.291Z,1009.19
2016-11-01T04:19:32.011Z,1008.80
2016-11-01T04:19:53.736Z,1009.19
2016-11-01T04:20:15.468Z,1008.97
2016-11-01T04:20:37.260Z,1008.87
2016-11-01T04:20:58.977Z,1008.81
2016-11-01T04:21:20.721Z,1008.74
2016-11-01T04:21:42.451Z,1009.03
2016-11-01T04:22:04.184Z,1009.12
2016-11-01T04:22:25.916Z,1009.08
2016-11-01T04:22:47.647Z,1009.13
2016-11-01T04:23:09.366Z,1009.00
2016-11-01T04:23:31.118Z,1008.92
2016-11-01T04:23:52.839Z,1008.73
2016-11-01T04:24:14.558Z,1008.82
2016-11-01T04:24:36.274Z,1008.98
2016-11-01T04:24:57.991Z,1009.16
2016-11-01T04:25:19.721Z,1009.19
2016-11-01T04:25:41.444Z,1009.02
2016-11-01T04:26:03.180Z,1008.86
2016-11-01T04:26:24.894Z,1008.91
2016-11-01T04:26:46.612Z,1008.94
2016-11-01T04:27:10.999Z,1009.19
2016-11-01T04:27:32.718Z,1009.23